Chantaco — FMLM — position and weather

sailwx.info

Track history (hours):
 
Tides and Currents Weather Stations Pressure Air Temp Water Temp Dewpoint Dewpoint Depression Visibility Wind Speed Wind Dir Waves Ship Positions

Chantaco

Last reported at 2014-Nov-01 09:33 UTC. Time now 2014-Nov-01 10:28 UTC.
Position N 51°53' E 004°17'.

Length 143 m; draft 8.7 m.

Type: Tanker. MMSI: 228330700.

Date/timePositionNaut miles runAvg speedWind from/ knotsBaromVisibWave heightAir tempDewpointWater temp
2014-Nov-01 09:33N 51°53' E 004°17'0 0.0
2014-Nov-01 08:30N 51°53' E 004°17'0 0.0
2014-Nov-01 07:30N 51°53' E 004°17'0 0.0
2014-Nov-01 06:33N 51°53' E 004°17'0 0.0
2014-Nov-01 05:27N 51°53' E 004°17'0 0.0
2014-Nov-01 04:33N 51°53' E 004°17'0 0.0
2014-Nov-01 03:30N 51°53' E 004°17'0 0.0
2014-Nov-01 02:30N 51°53' E 004°17'0 0.0
2014-Nov-01 01:33N 51°53' E 004°17'0 0.0
2014-Nov-01 00:30N 51°53' E 004°17'0 0.0
2014-Oct-31 23:24N 51°53' E 004°17'0 0.0
2014-Oct-31 22:33N 51°53' E 004°17'0 0.0
2014-Oct-31 21:30N 51°53' E 004°17'0 0.0
2014-Oct-31 20:27N 51°53' E 004°17'0 0.0
2014-Oct-31 19:29N 51°53' E 004°17'0 0.0
2014-Oct-31 18:05N 51°53' E 004°17'0 0.0
2014-Oct-31 16:14N 51°53' E 004°17'0 0.0
2014-Oct-31 15:29N 51°53' E 004°17'0 0.0
2014-Oct-31 13:32N 51°53' E 004°17'0 0.0
2014-Oct-31 12:32N 51°53' E 004°17'0 0.0
2014-Oct-31 11:23N 51°53' E 004°17'0 0.0
2014-Oct-31 10:26N 51°53' E 004°17'0 0.0
2014-Oct-31 09:32N 51°53' E 004°17'0 0.0
2014-Oct-31 07:32N 51°53' E 004°17'0 0.0
2014-Oct-31 06:29N 51°53' E 004°17'0 0.0
2014-Oct-31 05:29N 51°53' E 004°17'0 0.0
2014-Oct-31 04:23N 51°53' E 004°17'0 0.0
2014-Oct-31 03:26N 51°53' E 004°17'0 0.0
2014-Oct-31 02:29N 51°53' E 004°17'0 0.0
2014-Oct-31 01:32N 51°53' E 004°17'0 0.0
2014-Oct-31 00:29N 51°53' E 004°17'0 0.0
2014-Oct-30 23:32N 51°53' E 004°17'0 0.0
2014-Oct-30 22:23N 51°53' E 004°17'0 0.0
2014-Oct-30 21:32N 51°53' E 004°17'0 0.0
2014-Oct-30 20:26N 51°53' E 004°17'0 0.0
2014-Oct-30 19:32N 51°53' E 004°17'0 0.0
2014-Oct-30 18:29N 51°53' E 004°17'0 0.0
2014-Oct-30 17:14N 51°53' E 004°17'0 0.0
2014-Oct-30 16:29N 51°53' E 004°17'0 0.0
2014-Oct-30 15:23N 51°53' E 004°17'1 1.5
2014-Oct-30 14:34N 51°54' E 004°18'9 9.0
2014-Oct-30 13:34N 51°59' E 004°06'1110.5
2014-Oct-30 12:33N 52°00' E 003°49'10 9.5
2014-Oct-30 11:33N 52°05' E 003°36'3 2.7
2014-Oct-30 10:25N 52°08' E 003°37'0 0.0
2014-Oct-30 09:19N 52°08' E 003°37'0 0.0
2014-Oct-30 08:31N 52°08' E 003°37'0 0.0
2014-Oct-30 07:31N 52°08' E 003°37'0 0.0
2014-Oct-30 06:28N 52°08' E 003°37'0 0.0
2014-Oct-30 05:31N 52°08' E 003°37'0 0.0
2014-Oct-30 04:22N 52°08' E 003°37'0 0.2
2014-Oct-30 03:31N 52°08' E 003°37'0 0.1
2014-Oct-30 02:28N 52°08' E 003°37'0 0.0
2014-Oct-30 01:28N 52°08' E 003°37'0 0.0
2014-Oct-30 00:22N 52°08' E 003°37'0 0.0
2014-Oct-29 23:31N 52°08' E 003°37'0 0.0
2014-Oct-29 22:22N 52°08' E 003°37'0 0.0
2014-Oct-29 21:25N 52°08' E 003°37'0 0.1
2014-Oct-29 20:22N 52°08' E 003°37'0 0.1
2014-Oct-29 19:28N 52°08' E 003°37'0 0.0
2014-Oct-29 13:07N 52°08' E 003°37'0 0.0
2014-Oct-29 11:25N 52°08' E 003°37'0 0.1
2014-Oct-29 08:31N 52°08' E 003°37'3 0.6
2014-Oct-29 03:32N 52°07' E 003°32'5410.8
2014-Oct-28 22:31N 52°37' E 002°19'1413.3
2014-Oct-28 21:28N 52°45' E 002°01'1314.3
2014-Oct-28 20:33N 52°53' E 001°43'1413.7
2014-Oct-28 19:33N 53°03' E 001°28'1312.7
2014-Oct-28 18:33N 53°14' E 001°16'2411.9
2014-Oct-28 16:31N 53°31' E 000°48'1212.0
2014-Oct-28 15:33N 53°39' E 000°33'1211.6
2014-Oct-28 14:33N 53°49' E 000°24'1111.3
2014-Oct-28 13:34N 53°60' E 000°17'1110.9
2014-Oct-28 12:33N 54°10' E 000°10'1110.8
2014-Oct-28 11:34N 54°20' E 000°04'1111.2
2014-Oct-28 10:34N 54°30' W 000°05'1111.4
2014-Oct-28 09:33N 54°39' W 000°15'1211.8
2014-Oct-28 08:34N 54°50' W 000°25'1212.2
2014-Oct-28 07:33N 55°00' W 000°37'1312.6
2014-Oct-28 06:33N 55°11' W 000°48'1412.6
2014-Oct-28 05:24N 55°23' W 001°01'4712.3
2014-Oct-28 01:33N 56°01' W 001°51'1212.4
2014-Oct-28 00:33N 56°05' W 002°12'1212.4
2014-Oct-27 23:33N 56°07' W 002°33'1312.8
2014-Oct-27 22:33N 56°08' W 002°56'4 3.8
2014-Oct-27 21:32N 56°08' W 003°03'0 0.0
2014-Oct-27 20:32N 56°08' W 003°03'0 0.0
2014-Oct-27 19:32N 56°08' W 003°03'0 0.0
2014-Oct-27 18:34N 56°08' W 003°03'9 8.6
2014-Oct-27 17:33N 56°02' W 003°15'9 9.4
2014-Oct-27 16:33N 56°02' W 003°32'5 5.1
2014-Oct-27 15:31N 56°02' W 003°41'0 0.3
2014-Oct-27 14:31N 56°02' W 003°41'0 0.0
2014-Oct-27 13:31N 56°02' W 003°41'0 0.0
2014-Oct-27 12:31N 56°02' W 003°41'0 0.0
2014-Oct-27 11:31N 56°02' W 003°41'0 0.0
2014-Oct-27 10:31N 56°02' W 003°41'0 0.0
2014-Oct-27 09:31N 56°02' W 003°41'0 0.0
2014-Oct-27 08:31N 56°02' W 003°41'0 0.0
2014-Oct-27 07:31N 56°02' W 003°41'0 0.0
2014-Oct-27 06:31N 56°02' W 003°41'0 0.0
2014-Oct-27 05:31N 56°02' W 003°41'0 0.0
2014-Oct-27 04:31N 56°02' W 003°41'0 0.0
2014-Oct-27 03:31N 56°02' W 003°41'0 0.0
2014-Oct-27 02:31N 56°02' W 003°41'0 0.0
2014-Oct-27 01:31N 56°02' W 003°41'0 0.0
2014-Oct-27 00:31N 56°02' W 003°41'0 0.0
2014-Oct-26 23:31N 56°02' W 003°41'0 0.0
2014-Oct-26 22:31N 56°02' W 003°41'0 0.0
2014-Oct-26 21:31N 56°02' W 003°41'0 0.0
2014-Oct-26 20:31N 56°02' W 003°41'0 0.0
2014-Oct-26 19:31N 56°02' W 003°41'0 0.0
2014-Oct-26 18:34N 56°02' W 003°41'0 0.0
2014-Oct-26 17:33N 56°02' W 003°41'0 0.0
2014-Oct-26 16:33N 56°02' W 003°41'0 0.0
2014-Oct-26 15:33N 56°02' W 003°41'0 0.0
2014-Oct-26 14:33N 56°02' W 003°41'0 0.0
2014-Oct-26 13:33N 56°02' W 003°41'0 0.0
2014-Oct-26 12:33N 56°02' W 003°41'0 0.0
2014-Oct-26 11:33N 56°02' W 003°41'0 0.0
2014-Oct-26 10:33N 56°02' W 003°41'0 0.0
2014-Oct-26 09:33N 56°02' W 003°41'0 0.0
2014-Oct-26 08:33N 56°02' W 003°41'0 0.0
2014-Oct-26 07:33N 56°02' W 003°41'0 0.0
2014-Oct-26 06:33N 56°02' W 003°41'0 0.0
2014-Oct-26 05:33N 56°02' W 003°41'0 0.0
2014-Oct-26 04:33N 56°02' W 003°41'0 0.0
2014-Oct-26 03:33N 56°02' W 003°41'0 0.0
2014-Oct-26 02:33N 56°02' W 003°41'0 0.0
2014-Oct-26 01:33N 56°02' W 003°41'0 0.0
2014-Oct-26 00:33N 56°02' W 003°41'0 0.0
2014-Oct-25 23:33N 56°02' W 003°41'0 0.0
2014-Oct-25 22:33N 56°02' W 003°41'0 0.0
2014-Oct-25 21:33N 56°02' W 003°41'0 0.0
2014-Oct-25 20:33N 56°02' W 003°41'0 0.0
2014-Oct-25 19:33N 56°02' W 003°41'0 0.0
2014-Oct-25 18:33N 56°02' W 003°41'0 0.0
2014-Oct-25 17:33N 56°02' W 003°41'0 0.0
2014-Oct-25 16:33N 56°02' W 003°41'0 0.0
2014-Oct-25 15:33N 56°02' W 003°41'0 0.0
2014-Oct-25 14:33N 56°02' W 003°41'0 0.3
2014-Oct-25 13:33N 56°02' W 003°41'6 5.9
2014-Oct-25 12:33N 56°02' W 003°31'10 9.6
2014-Oct-25 11:33N 56°02' W 003°13'6 5.4
2014-Oct-25 10:32N 56°05' W 003°04'0 0.0
2014-Oct-25 09:32N 56°05' W 003°04'0 0.0
2014-Oct-25 08:32N 56°05' W 003°04'0 0.0
2014-Oct-25 07:32N 56°05' W 003°04'0 0.0
2014-Oct-25 06:32N 56°05' W 003°04'0 0.0
2014-Oct-25 05:32N 56°05' W 003°04'0 0.0
2014-Oct-25 04:32N 56°05' W 003°04'0 0.0
2014-Oct-25 03:22N 56°05' W 003°04'0 0.0
2014-Oct-25 02:22N 56°05' W 003°04'0 0.0
2014-Oct-25 01:31N 56°05' W 003°04'1 1.2
2014-Oct-25 00:33N 56°04' W 003°06'1 1.1
2014-Oct-24 23:33N 56°05' W 003°05'0 0.0
2014-Oct-24 22:33N 56°05' W 003°05'0 0.0
2014-Oct-24 21:33N 56°05' W 003°04'0 0.0
2014-Oct-24 20:33N 56°05' W 003°04'0 0.0
2014-Oct-24 19:33N 56°05' W 003°04'0 0.0
2014-Oct-24 18:33N 56°05' W 003°04'0 0.0
2014-Oct-24 17:33N 56°05' W 003°04'2 1.5
2014-Oct-24 16:34N 56°05' W 003°02'8 8.4
2014-Oct-24 15:33N 56°07' W 002°47'9 8.6
2014-Oct-24 14:33N 56°07' W 002°32'8 8.3
2014-Oct-24 13:34N 56°04' W 002°18'9 8.5
2014-Oct-24 12:34N 55°60' W 002°05'9 8.7
2014-Oct-24 11:33N 55°55' W 001°52'5310.6
2014-Oct-24 06:33N 55°14' W 000°51'9 9.2
2014-Oct-24 05:33N 55°06' W 000°43'9 8.9
2014-Oct-24 04:33N 54°59' W 000°35'9 8.3
2014-Oct-24 03:29N 54°51' W 000°27'8 8.3
2014-Oct-24 02:33N 54°44' W 000°20'9 8.5
2014-Oct-24 01:33N 54°37' W 000°13'8 8.1
2014-Oct-24 00:33N 54°30' W 000°05'9 9.4
2014-Oct-23 23:33N 54°22' E 000°02'1110.6
2014-Oct-23 22:34N 54°12' E 000°09'1111.2
2014-Oct-23 21:33N 54°02' E 000°16'1111.1
2014-Oct-23 20:34N 53°51' E 000°23'1110.5
2014-Oct-23 19:33N 53°42' E 000°31'10 9.8
2014-Oct-23 18:33N 53°34' E 000°41'29 9.1
2014-Oct-23 15:21N 53°14' E 001°16'911.1
2014-Oct-23 14:33N 53°06' E 001°24'1111.3
2014-Oct-23 13:33N 52°57' E 001°35'1211.8
2014-Oct-23 12:33N 52°50' E 001°50'1010.1
2014-Oct-23 11:32N 52°43' E 002°02'9 9.3
2014-Oct-23 10:33N 52°35' E 002°10'8 8.0
2014-Oct-23 09:33N 52°27' E 002°14'42 8.2
2014-Oct-23 04:23N 51°51' E 002°49'9 9.8
2014-Oct-23 03:30N 51°47' E 003°02'9 9.3
2014-Oct-23 02:29N 51°44' E 003°16'1010.3
2014-Oct-23 01:33N 51°35' E 003°24'1313.1
2014-Oct-23 00:33N 51°25' E 003°37'1110.6
2014-Oct-22 23:33N 51°21' E 003°53'6 6.4
2014-Oct-22 22:34N 51°23' E 004°03'9 9.1
2014-Oct-22 21:34N 51°21' E 004°17'0 0.0
2014-Oct-22 20:33N 51°21' E 004°17'1 0.7
2014-Oct-22 19:33N 51°20' E 004°18'1 0.3
2014-Oct-22 16:27N 51°19' E 004°18'0 0.0
2014-Oct-22 13:30N 51°19' E 004°18'  
Track history (hours):
 
Tides and Currents Weather Stations Pressure Air Temp Water Temp Dewpoint Dewpoint Depression Visibility Wind Speed Wind Dir Waves Ship Positions

Chantaco

Last reported at 2014-Nov-01 09:33 UTC. Time now 2014-Nov-01 10:28 UTC.
Position N 51°53' E 004°17'.

Length 143 m; draft 8.7 m.

Type: Tanker. MMSI: 228330700.

Date/timePositionNaut miles runAvg speedWind from/ knotsBaromVisibWave heightAir tempDewpointWater temp
2014-Nov-01 09:33N 51°53' E 004°17'0 0.0
2014-Nov-01 08:30N 51°53' E 004°17'0 0.0
2014-Nov-01 07:30N 51°53' E 004°17'0 0.0
2014-Nov-01 06:33N 51°53' E 004°17'0 0.0
2014-Nov-01 05:27N 51°53' E 004°17'0 0.0
2014-Nov-01 04:33N 51°53' E 004°17'0 0.0
2014-Nov-01 03:30N 51°53' E 004°17'0 0.0
2014-Nov-01 02:30N 51°53' E 004°17'0 0.0
2014-Nov-01 01:33N 51°53' E 004°17'0 0.0
2014-Nov-01 00:30N 51°53' E 004°17'0 0.0
2014-Oct-31 23:24N 51°53' E 004°17'0 0.0
2014-Oct-31 22:33N 51°53' E 004°17'0 0.0
2014-Oct-31 21:30N 51°53' E 004°17'0 0.0
2014-Oct-31 20:27N 51°53' E 004°17'0 0.0
2014-Oct-31 19:29N 51°53' E 004°17'0 0.0
2014-Oct-31 18:05N 51°53' E 004°17'0 0.0
2014-Oct-31 16:14N 51°53' E 004°17'0 0.0
2014-Oct-31 15:29N 51°53' E 004°17'0 0.0
2014-Oct-31 13:32N 51°53' E 004°17'0 0.0
2014-Oct-31 12:32N 51°53' E 004°17'0 0.0
2014-Oct-31 11:23N 51°53' E 004°17'0 0.0
2014-Oct-31 10:26N 51°53' E 004°17'0 0.0
2014-Oct-31 09:32N 51°53' E 004°17'0 0.0
2014-Oct-31 07:32N 51°53' E 004°17'0 0.0
2014-Oct-31 06:29N 51°53' E 004°17'0 0.0
2014-Oct-31 05:29N 51°53' E 004°17'0 0.0
2014-Oct-31 04:23N 51°53' E 004°17'0 0.0
2014-Oct-31 03:26N 51°53' E 004°17'0 0.0
2014-Oct-31 02:29N 51°53' E 004°17'0 0.0
2014-Oct-31 01:32N 51°53' E 004°17'0 0.0
2014-Oct-31 00:29N 51°53' E 004°17'0 0.0
2014-Oct-30 23:32N 51°53' E 004°17'0 0.0
2014-Oct-30 22:23N 51°53' E 004°17'0 0.0
2014-Oct-30 21:32N 51°53' E 004°17'0 0.0
2014-Oct-30 20:26N 51°53' E 004°17'0 0.0
2014-Oct-30 19:32N 51°53' E 004°17'0 0.0
2014-Oct-30 18:29N 51°53' E 004°17'0 0.0
2014-Oct-30 17:14N 51°53' E 004°17'0 0.0
2014-Oct-30 16:29N 51°53' E 004°17'0 0.0
2014-Oct-30 15:23N 51°53' E 004°17'1 1.5
2014-Oct-30 14:34N 51°54' E 004°18'9 9.0
2014-Oct-30 13:34N 51°59' E 004°06'1110.5
2014-Oct-30 12:33N 52°00' E 003°49'10 9.5
2014-Oct-30 11:33N 52°05' E 003°36'3 2.7
2014-Oct-30 10:25N 52°08' E 003°37'0 0.0
2014-Oct-30 09:19N 52°08' E 003°37'0 0.0
2014-Oct-30 08:31N 52°08' E 003°37'0 0.0
2014-Oct-30 07:31N 52°08' E 003°37'0 0.0
2014-Oct-30 06:28N 52°08' E 003°37'0 0.0
2014-Oct-30 05:31N 52°08' E 003°37'0 0.0
2014-Oct-30 04:22N 52°08' E 003°37'0 0.2
2014-Oct-30 03:31N 52°08' E 003°37'0 0.1
2014-Oct-30 02:28N 52°08' E 003°37'0 0.0
2014-Oct-30 01:28N 52°08' E 003°37'0 0.0
2014-Oct-30 00:22N 52°08' E 003°37'0 0.0
2014-Oct-29 23:31N 52°08' E 003°37'0 0.0
2014-Oct-29 22:22N 52°08' E 003°37'0 0.0
2014-Oct-29 21:25N 52°08' E 003°37'0 0.1
2014-Oct-29 20:22N 52°08' E 003°37'0 0.1
2014-Oct-29 19:28N 52°08' E 003°37'0 0.0
2014-Oct-29 13:07N 52°08' E 003°37'0 0.0
2014-Oct-29 11:25N 52°08' E 003°37'0 0.1
2014-Oct-29 08:31N 52°08' E 003°37'3 0.6
2014-Oct-29 03:32N 52°07' E 003°32'5410.8
2014-Oct-28 22:31N 52°37' E 002°19'1413.3
2014-Oct-28 21:28N 52°45' E 002°01'1314.3
2014-Oct-28 20:33N 52°53' E 001°43'1413.7
2014-Oct-28 19:33N 53°03' E 001°28'1312.7
2014-Oct-28 18:33N 53°14' E 001°16'2411.9
2014-Oct-28 16:31N 53°31' E 000°48'1212.0
2014-Oct-28 15:33N 53°39' E 000°33'1211.6
2014-Oct-28 14:33N 53°49' E 000°24'1111.3
2014-Oct-28 13:34N 53°60' E 000°17'1110.9
2014-Oct-28 12:33N 54°10' E 000°10'1110.8
2014-Oct-28 11:34N 54°20' E 000°04'1111.2
2014-Oct-28 10:34N 54°30' W 000°05'1111.4
2014-Oct-28 09:33N 54°39' W 000°15'1211.8
2014-Oct-28 08:34N 54°50' W 000°25'1212.2
2014-Oct-28 07:33N 55°00' W 000°37'1312.6
2014-Oct-28 06:33N 55°11' W 000°48'1412.6
2014-Oct-28 05:24N 55°23' W 001°01'4712.3
2014-Oct-28 01:33N 56°01' W 001°51'1212.4
2014-Oct-28 00:33N 56°05' W 002°12'1212.4
2014-Oct-27 23:33N 56°07' W 002°33'1312.8
2014-Oct-27 22:33N 56°08' W 002°56'4 3.8
2014-Oct-27 21:32N 56°08' W 003°03'0 0.0
2014-Oct-27 20:32N 56°08' W 003°03'0 0.0
2014-Oct-27 19:32N 56°08' W 003°03'0 0.0
2014-Oct-27 18:34N 56°08' W 003°03'9 8.6
2014-Oct-27 17:33N 56°02' W 003°15'9 9.4
2014-Oct-27 16:33N 56°02' W 003°32'5 5.1
2014-Oct-27 15:31N 56°02' W 003°41'0 0.3
2014-Oct-27 14:31N 56°02' W 003°41'0 0.0
2014-Oct-27 13:31N 56°02' W 003°41'0 0.0
2014-Oct-27 12:31N 56°02' W 003°41'0 0.0
2014-Oct-27 11:31N 56°02' W 003°41'0 0.0
2014-Oct-27 10:31N 56°02' W 003°41'0 0.0
2014-Oct-27 09:31N 56°02' W 003°41'0 0.0
2014-Oct-27 08:31N 56°02' W 003°41'0 0.0
2014-Oct-27 07:31N 56°02' W 003°41'0 0.0
2014-Oct-27 06:31N 56°02' W 003°41'0 0.0
2014-Oct-27 05:31N 56°02' W 003°41'0 0.0
2014-Oct-27 04:31N 56°02' W 003°41'0 0.0
2014-Oct-27 03:31N 56°02' W 003°41'0 0.0
2014-Oct-27 02:31N 56°02' W 003°41'0 0.0
2014-Oct-27 01:31N 56°02' W 003°41'0 0.0
2014-Oct-27 00:31N 56°02' W 003°41'0 0.0
2014-Oct-26 23:31N 56°02' W 003°41'0 0.0
2014-Oct-26 22:31N 56°02' W 003°41'0 0.0
2014-Oct-26 21:31N 56°02' W 003°41'0 0.0
2014-Oct-26 20:31N 56°02' W 003°41'0 0.0
2014-Oct-26 19:31N 56°02' W 003°41'0 0.0
2014-Oct-26 18:34N 56°02' W 003°41'0 0.0
2014-Oct-26 17:33N 56°02' W 003°41'0 0.0
2014-Oct-26 16:33N 56°02' W 003°41'0 0.0
2014-Oct-26 15:33N 56°02' W 003°41'0 0.0
2014-Oct-26 14:33N 56°02' W 003°41'0 0.0
2014-Oct-26 13:33N 56°02' W 003°41'0 0.0
2014-Oct-26 12:33N 56°02' W 003°41'0 0.0
2014-Oct-26 11:33N 56°02' W 003°41'0 0.0
2014-Oct-26 10:33N 56°02' W 003°41'0 0.0
2014-Oct-26 09:33N 56°02' W 003°41'0 0.0
2014-Oct-26 08:33N 56°02' W 003°41'0 0.0
2014-Oct-26 07:33N 56°02' W 003°41'0 0.0
2014-Oct-26 06:33N 56°02' W 003°41'0 0.0
2014-Oct-26 05:33N 56°02' W 003°41'0 0.0
2014-Oct-26 04:33N 56°02' W 003°41'0 0.0
2014-Oct-26 03:33N 56°02' W 003°41'0 0.0
2014-Oct-26 02:33N 56°02' W 003°41'0 0.0
2014-Oct-26 01:33N 56°02' W 003°41'0 0.0
2014-Oct-26 00:33N 56°02' W 003°41'0 0.0
2014-Oct-25 23:33N 56°02' W 003°41'0 0.0
2014-Oct-25 22:33N 56°02' W 003°41'0 0.0
2014-Oct-25 21:33N 56°02' W 003°41'0 0.0
2014-Oct-25 20:33N 56°02' W 003°41'0 0.0
2014-Oct-25 19:33N 56°02' W 003°41'0 0.0
2014-Oct-25 18:33N 56°02' W 003°41'0 0.0
2014-Oct-25 17:33N 56°02' W 003°41'0 0.0
2014-Oct-25 16:33N 56°02' W 003°41'0 0.0
2014-Oct-25 15:33N 56°02' W 003°41'0 0.0
2014-Oct-25 14:33N 56°02' W 003°41'0 0.3
2014-Oct-25 13:33N 56°02' W 003°41'6 5.9
2014-Oct-25 12:33N 56°02' W 003°31'10 9.6
2014-Oct-25 11:33N 56°02' W 003°13'6 5.4
2014-Oct-25 10:32N 56°05' W 003°04'0 0.0
2014-Oct-25 09:32N 56°05' W 003°04'0 0.0
2014-Oct-25 08:32N 56°05' W 003°04'0 0.0
2014-Oct-25 07:32N 56°05' W 003°04'0 0.0
2014-Oct-25 06:32N 56°05' W 003°04'0 0.0
2014-Oct-25 05:32N 56°05' W 003°04'0 0.0
2014-Oct-25 04:32N 56°05' W 003°04'0 0.0
2014-Oct-25 03:22N 56°05' W 003°04'0 0.0
2014-Oct-25 02:22N 56°05' W 003°04'0 0.0
2014-Oct-25 01:31N 56°05' W 003°04'1 1.2
2014-Oct-25 00:33N 56°04' W 003°06'1 1.1
2014-Oct-24 23:33N 56°05' W 003°05'0 0.0
2014-Oct-24 22:33N 56°05' W 003°05'0 0.0
2014-Oct-24 21:33N 56°05' W 003°04'0 0.0
2014-Oct-24 20:33N 56°05' W 003°04'0 0.0
2014-Oct-24 19:33N 56°05' W 003°04'0 0.0
2014-Oct-24 18:33N 56°05' W 003°04'0 0.0
2014-Oct-24 17:33N 56°05' W 003°04'2 1.5
2014-Oct-24 16:34N 56°05' W 003°02'8 8.4
2014-Oct-24 15:33N 56°07' W 002°47'9 8.6
2014-Oct-24 14:33N 56°07' W 002°32'8 8.3
2014-Oct-24 13:34N 56°04' W 002°18'9 8.5
2014-Oct-24 12:34N 55°60' W 002°05'9 8.7
2014-Oct-24 11:33N 55°55' W 001°52'5310.6
2014-Oct-24 06:33N 55°14' W 000°51'9 9.2
2014-Oct-24 05:33N 55°06' W 000°43'9 8.9
2014-Oct-24 04:33N 54°59' W 000°35'9 8.3
2014-Oct-24 03:29N 54°51' W 000°27'8 8.3
2014-Oct-24 02:33N 54°44' W 000°20'9 8.5
2014-Oct-24 01:33N 54°37' W 000°13'8 8.1
2014-Oct-24 00:33N 54°30' W 000°05'9 9.4
2014-Oct-23 23:33N 54°22' E 000°02'1110.6
2014-Oct-23 22:34N 54°12' E 000°09'1111.2
2014-Oct-23 21:33N 54°02' E 000°16'1111.1
2014-Oct-23 20:34N 53°51' E 000°23'1110.5
2014-Oct-23 19:33N 53°42' E 000°31'10 9.8
2014-Oct-23 18:33N 53°34' E 000°41'29 9.1
2014-Oct-23 15:21N 53°14' E 001°16'911.1
2014-Oct-23 14:33N 53°06' E 001°24'1111.3
2014-Oct-23 13:33N 52°57' E 001°35'1211.8
2014-Oct-23 12:33N 52°50' E 001°50'1010.1
2014-Oct-23 11:32N 52°43' E 002°02'9 9.3
2014-Oct-23 10:33N 52°35' E 002°10'8 8.0
2014-Oct-23 09:33N 52°27' E 002°14'42 8.2
2014-Oct-23 04:23N 51°51' E 002°49'9 9.8
2014-Oct-23 03:30N 51°47' E 003°02'9 9.3
2014-Oct-23 02:29N 51°44' E 003°16'1010.3
2014-Oct-23 01:33N 51°35' E 003°24'1313.1
2014-Oct-23 00:33N 51°25' E 003°37'1110.6
2014-Oct-22 23:33N 51°21' E 003°53'6 6.4
2014-Oct-22 22:34N 51°23' E 004°03'9 9.1
2014-Oct-22 21:34N 51°21' E 004°17'0 0.0
2014-Oct-22 20:33N 51°21' E 004°17'1 0.7
2014-Oct-22 19:33N 51°20' E 004°18'1 0.3
2014-Oct-22 16:27N 51°19' E 004°18'0 0.0
2014-Oct-22 13:30N 51°19' E 004°18'  

Dump ship's entire track history